Time;durP1;ratioP1;P1;durP2;ratioP2;P2;SDS_P1;SDS_P2;PMS_P1;PMS_P2;Temp;Humidity;BMP_temperature;BMP_pressure;BME280_temperature;BME280_humidity;BME280_pressure;Samples;Min_cycle;Max_cycle;Signal;HPM_P1;HPM_P2
2022/04/02 00:01:46;;;;;;;26.67;24.07;;;1.40;99.90;;;2.10;100.00;96630.41;5222796;28;20285;-61
2022/04/02 00:04:20;;;;;;;28.63;25.93;;;1.40;99.90;;;2.11;100.00;96632.13;5222808;28;20742;-62
2022/04/02 00:06:55;;;;;;;28.40;25.70;;;1.40;99.90;;;2.12;100.00;96636.44;5222946;28;20198;-60
2022/04/02 00:09:28;;;;;;;28.80;25.90;;;1.40;99.90;;;2.12;100.00;96627.97;5222452;28;20523;-61
2022/04/02 00:12:01;;;;;;;28.10;25.40;;;1.50;99.90;;;2.16;100.00;96635.00;5223156;28;20670;-61
2022/04/02 00:14:34;;;;;;;26.50;24.10;;;1.50;99.90;;;2.02;100.00;96626.47;5223175;28;20258;-61
2022/04/02 00:17:07;;;;;;;26.73;24.33;;;1.40;99.90;;;2.05;100.00;96629.19;5222640;28;20331;-60
2022/04/02 00:19:40;;;;;;;26.83;24.37;;;1.30;99.90;;;2.07;100.00;96630.19;5223654;28;20199;-60
2022/04/02 00:22:15;;;;;;;26.80;24.30;;;1.40;99.90;;;2.03;100.00;96623.16;5223691;28;20201;-62
2022/04/02 00:24:48;;;;;;;27.03;24.53;;;1.30;99.90;;;2.05;100.00;96625.81;5222004;28;20670;-61
2022/04/02 00:27:21;;;;;;;27.13;24.57;;;1.30;99.90;;;2.07;100.00;96629.31;5222243;28;20215;-61
2022/04/02 00:29:54;;;;;;;27.73;25.00;;;1.40;99.90;;;1.94;100.00;96627.59;5222627;28;20235;-62
2022/04/02 00:32:29;;;;;;;25.17;22.83;;;1.20;99.90;;;1.97;100.00;96627.78;5222952;28;20236;-61
2022/04/02 00:35:03;;;;;;;26.60;24.10;;;1.20;99.90;;;1.92;100.00;96635.03;5223086;28;20221;-62
2022/04/02 00:37:37;;;;;;;25.60;23.30;;;1.30;99.90;;;1.93;100.00;96631.75;5223756;28;20633;-62
2022/04/02 00:40:12;;;;;;;25.93;23.43;;;1.20;99.90;;;1.95;100.00;96624.31;5222968;28;20240;-61
2022/04/02 00:42:45;;;;;;;26.73;24.13;;;1.30;99.90;;;1.94;100.00;96633.50;5223342;28;20291;-59
2022/04/02 00:45:18;;;;;;;26.77;24.10;;;1.30;99.90;;;1.89;100.00;96629.78;5222998;28;20233;-62
2022/04/02 00:47:51;;;;;;;27.60;25.03;;;1.10;99.90;;;1.83;100.00;96628.47;5222943;28;20200;-61
2022/04/02 00:50:27;;;;;;;26.93;24.43;;;1.10;99.90;;;1.82;100.00;96629.25;5223547;28;20232;-59
2022/04/02 00:53:01;;;;;;;26.30;23.90;;;1.20;99.90;;;1.76;100.00;96630.56;5222122;28;20664;-60
2022/04/02 00:55:35;;;;;;;27.03;24.50;;;1.10;99.90;;;1.88;100.00;96632.19;5226429;28;20271;-62
2022/04/02 00:58:10;;;;;;;28.70;25.80;;;1.20;99.90;;;1.88;100.00;96627.16;5222753;28;20248;-61
2022/04/02 01:00:44;;;;;;;26.30;23.80;;;1.20;99.90;;;1.84;100.00;96627.72;5223393;28;20221;-62
2022/04/02 01:03:18;;;;;;;26.60;24.20;;;1.10;99.90;;;1.83;100.00;96631.00;5222047;28;20295;-60
2022/04/02 01:05:52;;;;;;;25.90;23.50;;;1.10;99.90;;;1.78;100.00;96636.59;5221773;28;20246;-61
2022/04/02 01:08:27;;;;;;;28.00;25.33;;;1.20;99.90;;;1.85;100.00;96626.94;5221165;28;20248;-61
2022/04/02 01:11:00;;;;;;;27.43;24.83;;;1.10;99.90;;;1.72;100.00;96628.63;5223342;28;20196;-61
2022/04/02 01:13:34;;;;;;;27.60;25.00;;;1.00;99.90;;;1.70;100.00;96632.66;5222694;28;20252;-62
2022/04/02 01:16:08;;;;;;;25.90;23.50;;;1.00;99.90;;;1.61;100.00;96626.09;5223632;28;20233;-62
2022/04/02 01:18:41;;;;;;;25.60;23.23;;;0.90;99.90;;;1.51;100.00;96632.09;5221959;28;20216;-62
2022/04/02 01:21:14;;;;;;;26.07;23.57;;;0.90;99.90;;;1.59;100.00;96636.06;5221970;28;20239;-62
2022/04/02 01:23:48;;;;;;;26.23;23.77;;;0.90;99.90;;;1.49;100.00;96631.16;5222212;28;20205;-62
2022/04/02 01:26:22;;;;;;;26.80;24.20;;;0.90;99.90;;;1.46;100.00;96633.41;5222243;28;20346;-62
2022/04/02 01:28:56;;;;;;;28.10;25.33;;;0.90;99.90;;;1.60;100.00;96634.41;5222635;28;20228;-62
2022/04/02 01:31:29;;;;;;;27.57;24.93;;;1.00;99.90;;;1.68;100.00;96639.22;5223466;28;20277;-62
2022/04/02 01:34:03;;;;;;;27.33;24.77;;;1.00;99.90;;;1.68;100.00;96634.19;5224029;28;20237;-62
2022/04/02 01:36:36;;;;;;;26.60;23.83;;;1.00;99.90;;;1.53;100.00;96641.53;5224670;28;20197;-62
2022/04/02 01:39:11;;;;;;;27.83;25.20;;;1.00;99.90;;;1.53;100.00;96639.00;5226278;28;20213;-62
2022/04/02 01:41:44;;;;;;;27.00;24.33;;;0.90;99.90;;;1.59;100.00;96641.09;5225480;28;20242;-62
2022/04/02 01:44:17;;;;;;;27.10;24.60;;;1.00;99.90;;;1.54;100.00;96639.88;5227041;28;20766;-61
2022/04/02 01:46:50;;;;;;;26.43;23.93;;;1.00;99.90;;;1.63;100.00;96647.22;5225588;28;20220;-62
2022/04/02 01:49:23;;;;;;;26.43;23.83;;;0.90;99.90;;;1.54;100.00;96640.75;5227070;28;20225;-62
2022/04/02 01:51:56;;;;;;;26.27;23.67;;;1.00;99.90;;;1.41;100.00;96648.22;5225764;28;20295;-62
2022/04/02 01:54:31;;;;;;;27.67;24.80;;;0.90;99.90;;;1.52;100.00;96643.94;5225564;28;20248;-62
2022/04/02 01:57:04;;;;;;;25.30;22.73;;;1.00;99.90;;;1.41;100.00;96647.34;5226233;28;20199;-62
2022/04/02 01:59:38;;;;;;;25.83;23.27;;;0.90;99.90;;;1.55;100.00;96650.06;5220973;28;20289;-62
2022/04/02 02:02:12;;;;;;;26.27;23.67;;;0.90;99.90;;;1.55;100.00;96651.72;5222977;28;20277;-62
2022/04/02 02:04:45;;;;;;;28.47;25.57;;;0.90;99.90;;;1.56;100.00;96646.78;5223902;28;20221;-62
2022/04/02 02:07:19;;;;;;;27.33;24.60;;;1.00;99.90;;;1.48;100.00;96652.03;5226159;28;20232;-62
2022/04/02 02:09:58;;;;;;;27.40;24.60;;;0.90;99.90;;;1.49;100.00;96661.34;5225417;28;20204;-59
2022/04/02 02:12:31;;;;;;;27.23;24.57;;;0.90;99.90;;;1.54;100.00;96665.94;5224823;28;20661;-58
2022/04/02 02:15:06;;;;;;;27.27;24.57;;;0.90;99.90;;;1.52;100.00;96666.59;5225166;28;20266;-60
2022/04/02 02:17:39;;;;;;;28.10;25.13;;;1.00;99.90;;;1.51;100.00;96667.34;5222388;28;20241;-59
2022/04/02 02:20:13;;;;;;;26.70;23.90;;;0.90;99.90;;;1.49;100.00;96666.41;5222918;28;20238;-59
2022/04/02 02:22:48;;;;;;;25.70;23.10;;;0.90;99.90;;;1.40;100.00;96670.75;5224900;28;20221;-59
2022/04/02 02:25:22;;;;;;;25.97;23.40;;;0.80;99.90;;;1.32;100.00;96672.72;5224454;28;20699;-62
2022/04/02 02:27:55;;;;;;;25.37;22.83;;;0.70;99.90;;;1.28;100.00;96666.56;5225951;28;20201;-63
2022/04/02 02:30:29;;;;;;;26.50;23.80;;;0.80;99.90;;;1.33;100.00;96672.81;5225338;28;20204;-62
2022/04/02 02:35:55;;;;;;;24.77;22.30;;;0.80;99.90;;;1.38;100.00;96674.81;5196117;28;20303;-62
2022/04/02 02:38:28;;;;;;;25.20;22.53;;;0.80;99.90;;;1.47;100.00;96677.97;5225223;28;20208;-62
2022/04/02 02:41:03;;;;;;;25.60;23.20;;;0.90;99.90;;;1.34;100.00;96684.66;5224500;28;20212;-62
2022/04/02 03:00:23;;;;;;;25.13;22.67;;;0.70;99.90;;;1.49;100.00;96684.88;5235186;28;20212;-80
2022/04/02 03:02:56;;;;;;;23.37;21.10;;;0.80;99.90;;;1.24;100.00;96682.22;5224329;28;20641;-78
2022/04/02 03:05:29;;;;;;;23.03;20.80;;;0.70;99.90;;;1.16;100.00;96700.03;5214829;28;20699;-79
2022/04/02 03:08:03;;;;;;;22.17;19.87;;;0.60;99.90;;;1.13;100.00;96695.66;5218340;28;20226;-79
2022/04/02 03:10:36;;;;;;;22.53;20.37;;;0.60;99.90;;;1.04;100.00;96697.50;5220549;28;20249;-78
2022/04/02 03:13:10;;;;;;;22.57;20.23;;;0.50;99.90;;;1.18;100.00;96696.88;5218043;28;20281;-79
2022/04/02 03:15:45;;;;;;;23.00;20.80;;;0.60;99.90;;;1.18;100.00;96694.34;5218797;28;20200;-77
2022/04/02 03:18:18;;;;;;;25.17;21.10;;;0.60;99.90;;;1.01;100.00;96704.81;5218728;28;20619;-80
2022/04/02 03:20:51;;;;;;;23.23;20.30;;;0.50;99.90;;;0.85;100.00;96710.31;5217953;28;20239;-80
2022/04/02 03:23:25;;;;;;;22.93;20.63;;;0.40;99.90;;;0.81;100.00;96710.88;5219126;28;20222;-79
2022/04/02 03:25:58;;;;;;;22.37;20.20;;;0.30;99.90;;;0.83;100.00;96715.25;5215071;28;20242;-79
2022/04/02 03:28:32;;;;;;;23.17;20.77;;;0.40;99.90;;;0.92;100.00;96706.63;5217903;28;20210;-79
2022/04/02 03:31:07;;;;;;;22.50;20.27;;;0.40;99.90;;;0.95;100.00;96716.94;5220187;28;20199;-80
2022/04/02 03:33:40;;;;;;;22.73;20.33;;;0.40;99.90;;;1.00;100.00;96718.13;5222936;28;20226;-78
2022/04/02 03:36:13;;;;;;;21.73;19.53;;;0.40;99.90;;;0.94;100.00;96713.53;5219808;28;20257;-78
2022/04/02 03:38:47;;;;;;;20.20;18.00;;;0.40;99.90;;;1.04;100.00;96722.66;5221065;28;20206;-80
2022/04/02 03:41:20;;;;;;;23.83;18.60;;;0.50;99.90;;;1.01;100.00;96722.44;5218469;28;20205;-80
2022/04/02 03:43:53;;;;;;;19.37;16.50;;;0.50;99.90;;;0.85;100.00;96718.75;5219304;28;20255;-81
2022/04/02 03:49:19;;;;;;;18.40;16.53;;;0.40;99.90;;;0.72;100.00;96716.09;5219731;28;20203;-80
2022/04/02 03:51:52;;;;;;;19.23;16.20;;;0.30;99.90;;;0.76;100.00;96723.09;5219139;28;20202;-81
2022/04/02 03:54:25;;;;;;;19.87;16.70;;;0.30;99.90;;;0.84;100.00;96726.19;5219086;28;20649;-79
2022/04/02 03:56:58;;;;;;;20.60;17.10;;;0.40;99.90;;;0.85;100.00;96721.25;5218356;28;20194;-81
2022/04/02 03:59:32;;;;;;;22.07;18.00;;;0.30;99.90;;;0.76;100.00;96728.09;5219117;28;20219;-80
2022/04/02 04:02:08;;;;;;;19.30;17.30;;;0.40;99.90;;;0.79;100.00;96728.34;5215837;28;20206;-80
2022/04/02 04:04:42;;;;;;;18.27;16.37;;;0.40;99.90;;;0.78;100.00;96731.63;5220211;28;20647;-79
2022/04/02 04:07:15;;;;;;;19.50;17.50;;;0.40;99.90;;;0.76;100.00;96727.25;5219533;28;20258;-80
2022/04/02 04:09:48;;;;;;;20.07;17.13;;;0.40;99.90;;;0.85;100.00;96736.34;5217671;28;20667;-82
2022/04/02 04:12:22;;;;;;;20.30;16.77;;;0.40;99.90;;;0.73;100.00;96732.91;5216452;28;20252;-80
2022/04/02 04:14:55;;;;;;;19.00;17.23;;;0.40;99.90;;;0.91;100.00;96738.44;5214833;28;20632;-77
2022/04/02 04:17:30;;;;;;;20.23;18.03;;;0.40;99.90;;;0.95;100.00;96739.56;5215057;28;20518;-80
2022/04/02 04:20:05;;;;;;;19.97;18.03;;;0.50;99.90;;;0.88;100.00;96749.16;5218954;28;20217;-81
2022/04/02 04:22:38;;;;;;;18.87;17.13;;;0.50;99.90;;;0.93;100.00;96741.09;5215180;28;20230;-80
2022/04/02 04:25:11;;;;;;;18.53;16.73;;;0.50;99.90;;;0.87;100.00;96742.38;5219832;28;20211;-78
2022/04/02 04:27:44;;;;;;;20.13;16.97;;;0.40;99.90;;;0.96;100.00;96746.34;5224388;28;20269;-80
2022/04/02 04:30:17;;;;;;;18.73;16.83;;;0.50;99.90;;;0.93;100.00;96749.50;5218232;28;20194;-80
2022/04/02 04:32:52;;;;;;;20.03;17.97;;;0.60;99.90;;;0.97;100.00;96748.97;5212648;28;20235;-80
2022/04/02 04:35:25;;;;;;;19.23;17.17;;;0.60;99.90;;;0.96;100.00;96751.38;5217480;28;20198;-78
2022/04/02 04:37:59;;;;;;;17.50;15.53;;;0.60;99.90;;;0.92;100.00;96754.41;5214607;28;20226;-79
2022/04/02 04:40:32;;;;;;;17.87;16.03;;;0.50;99.90;;;1.16;100.00;96758.78;5220235;28;20205;-80
2022/04/02 04:43:07;;;;;;;16.53;14.83;;;0.60;99.90;;;0.98;100.00;96755.78;5214113;28;20215;-78
2022/04/02 04:45:40;;;;;;;16.47;14.90;;;0.50;99.90;;;0.84;100.00;96756.38;5220257;28;20204;-78
2022/04/02 04:48:14;;;;;;;16.07;14.47;;;0.40;99.90;;;0.83;100.00;96765.56;5216840;28;20682;-79
2022/04/02 04:50:48;;;;;;;16.70;14.97;;;0.40;99.90;;;0.78;100.00;96761.81;5221557;28;20203;-80
2022/04/02 04:53:21;;;;;;;16.47;14.87;;;0.40;99.90;;;0.86;100.00;96770.81;5218240;28;20308;-79
2022/04/02 04:55:54;;;;;;;16.93;15.13;;;0.50;99.90;;;0.99;100.00;96771.72;5219886;28;20236;-80
2022/04/02 04:58:28;;;;;;;16.73;15.13;;;0.60;99.90;;;0.99;100.00;96771.72;5214317;28;20884;-79
2022/04/02 05:01:02;;;;;;;16.20;14.67;;;0.60;99.90;;;0.92;100.00;96779.56;5210478;28;20226;-79
2022/04/02 05:03:36;;;;;;;15.53;14.07;;;0.60;99.90;;;0.82;100.00;96778.88;5214410;28;20247;-80
2022/04/02 05:06:11;;;;;;;14.40;13.10;;;0.50;99.90;;;0.71;100.00;96781.31;5217593;28;20247;-81
2022/04/02 05:08:45;;;;;;;16.73;15.17;;;0.40;99.90;;;0.74;100.00;96784.06;5222037;28;20225;-82
2022/04/02 05:11:18;;;;;;;15.27;13.90;;;0.40;99.90;;;0.71;100.00;96791.38;5214555;28;20197;-79
2022/04/02 05:13:51;;;;;;;14.77;13.47;;;0.40;99.90;;;0.61;99.94;96789.81;5220031;28;20209;-80
2022/04/02 05:16:26;;;;;;;16.90;15.17;;;0.30;99.90;;;0.70;100.00;96793.03;5217214;28;20227;-79
2022/04/02 05:19:00;;;;;;;16.17;14.77;;;0.30;99.90;;;0.69;100.00;96793.78;5215741;28;20202;-79
2022/04/02 05:21:34;;;;;;;18.00;16.27;;;0.30;99.90;;;0.77;100.00;96800.25;5217471;28;20226;-80
2022/04/02 05:24:07;;;;;;;16.57;14.87;;;0.40;99.90;;;0.68;100.00;96794.53;5222100;28;20626;-79
2022/04/02 05:26:41;;;;;;;16.50;15.03;;;0.40;99.90;;;0.76;100.00;96803.56;5218337;28;20252;-79
2022/04/02 05:29:14;;;;;;;16.77;14.93;;;0.40;99.90;;;0.71;100.00;96808.97;5224003;28;20206;-81
2022/04/02 05:31:48;;;;;;;16.53;14.83;;;0.30;99.90;;;0.71;100.00;96809.84;5220713;28;20264;-79
2022/04/02 05:34:23;;;;;;;16.90;15.20;;;0.30;99.90;;;0.68;100.00;96809.63;5215624;28;20217;-82
2022/04/02 05:36:56;;;;;;;16.90;15.13;;;0.30;99.90;;;0.82;100.00;96814.06;5221419;28;20193;-80
2022/04/02 05:39:29;;;;;;;15.93;14.37;;;0.40;99.90;;;0.68;100.00;96820.53;5215860;28;20212;-79
2022/04/02 05:42:06;;;;;;;17.13;15.53;;;0.30;99.90;;;0.74;100.00;96825.19;5211540;28;20199;-81
2022/04/02 05:44:39;;;;;;;16.57;15.07;;;0.40;99.90;;;0.61;100.00;96825.00;5218914;28;20224;-82
2022/04/02 05:47:13;;;;;;;16.37;14.37;;;0.30;99.90;;;0.66;100.00;96828.75;5217547;28;20222;-79
2022/04/02 05:49:51;;;;;;;16.67;14.97;;;0.30;99.90;;;0.76;100.00;96833.72;5218941;28;20215;-81
2022/04/02 05:52:24;;;;;;;17.23;15.43;;;0.40;99.90;;;0.75;100.00;96834.50;5212867;28;20221;-78
2022/04/02 05:54:57;;;;;;;17.53;15.70;;;0.40;99.90;;;0.79;100.00;96828.94;5221474;28;20221;-80
2022/04/02 05:57:30;;;;;;;17.37;15.53;;;0.50;99.90;;;0.85;100.00;96831.03;5220091;28;20209;-78
2022/04/02 06:00:07;;;;;;;18.13;16.20;;;0.50;99.90;;;0.95;100.00;96833.53;5221289;28;20229;-81
2022/04/02 06:02:41;;;;;;;18.17;16.43;;;0.60;99.90;;;0.98;100.00;96837.91;5213238;28;20220;-80
2022/04/02 06:05:15;;;;;;;16.97;15.50;;;0.60;99.90;;;1.00;100.00;96838.88;5221576;28;20252;-80
2022/04/02 06:07:48;;;;;;;16.57;14.77;;;0.60;99.90;;;1.07;100.00;96842.00;5218072;28;20273;-80
2022/04/02 06:10:22;;;;;;;16.93;15.33;;;0.60;99.90;;;1.01;100.00;96848.19;5216559;28;20203;-77
2022/04/02 06:12:55;;;;;;;15.80;14.40;;;0.60;99.90;;;1.02;100.00;96858.38;5219781;28;20240;-78
2022/04/02 06:15:29;;;;;;;16.60;14.97;;;0.60;99.90;;;1.07;100.00;96851.19;5216508;28;20199;-79
2022/04/02 06:18:03;;;;;;;18.63;16.77;;;0.60;99.90;;;1.04;100.00;96850.94;5220239;28;20417;-82
2022/04/02 06:20:38;;;;;;;17.63;16.03;;;0.70;99.90;;;1.05;100.00;96852.69;5210574;28;20226;-78
2022/04/02 06:23:11;;;;;;;17.30;15.60;;;0.70;99.90;;;1.12;100.00;96867.53;5210992;28;20223;-79
2022/04/02 06:25:45;;;;;;;17.87;16.27;;;0.70;99.90;;;1.03;100.00;96859.25;5211631;28;20203;-80
2022/04/02 06:28:18;;;;;;;17.13;15.63;;;0.70;99.90;;;1.09;100.00;96865.63;5214646;28;20253;-79
2022/04/02 06:33:53;;;;;;;17.97;16.30;;;0.80;99.90;;;1.13;100.00;96866.75;5216438;28;20249;-80
2022/04/02 06:36:27;;;;;;;18.97;17.27;;;0.80;99.90;;;1.21;100.00;96875.75;5219151;28;20211;-81
2022/04/02 06:39:00;;;;;;;18.33;16.73;;;0.80;99.90;;;1.21;100.00;96885.84;5218254;28;20203;-80
2022/04/02 06:41:33;;;;;;;19.10;17.30;;;0.80;99.90;;;1.25;100.00;96880.25;5214146;28;20250;-80
2022/04/02 06:44:08;;;;;;;17.67;16.03;;;0.90;99.90;;;1.27;100.00;96886.28;5215612;28;20798;-80
2022/04/02 06:46:42;;;;;;;17.03;15.43;;;0.90;99.90;;;1.25;100.00;96882.78;5216386;28;20223;-82
2022/04/02 06:49:15;;;;;;;18.47;16.47;;;0.80;99.90;;;1.31;100.00;96893.31;5216332;28;20239;-80
2022/04/02 06:51:50;;;;;;;16.60;15.13;;;0.90;99.90;;;1.19;100.00;96891.50;5209592;28;20644;-77
2022/04/02 06:54:25;;;;;;;18.30;16.60;;;0.80;99.90;;;1.28;100.00;96888.03;5210067;28;20230;-79
2022/04/02 06:56:58;;;;;;;16.63;15.13;;;0.80;99.90;;;1.37;100.00;96897.06;5217764;28;20687;-80
2022/04/02 06:59:32;;;;;;;17.43;15.93;;;1.00;99.90;;;1.38;100.00;96903.88;5209955;28;20210;-80
2022/04/02 07:02:09;;;;;;;16.53;14.80;;;1.00;99.90;;;1.34;100.00;96903.63;5215456;28;20203;-80
2022/04/02 07:04:43;;;;;;;17.53;16.03;;;1.00;99.90;;;1.41;100.00;96904.97;5214947;28;20202;-81
2022/04/02 07:07:17;;;;;;;17.83;16.20;;;1.00;99.90;;;1.47;100.00;96909.59;5211046;28;20256;-80
2022/04/02 07:09:51;;;;;;;16.73;15.33;;;1.00;99.90;;;1.49;100.00;96913.13;5220918;28;20288;-80
2022/04/02 07:12:24;;;;;;;15.77;14.37;;;1.10;99.90;;;1.40;100.00;96912.41;5215009;28;20695;-80
2022/04/02 07:14:57;;;;;;;15.63;14.17;;;1.00;99.90;;;1.43;100.00;96910.09;5219637;28;20299;-80
2022/04/02 07:17:31;;;;;;;15.83;14.53;;;1.00;99.90;;;1.51;100.00;96924.16;5218406;28;20231;-82
2022/04/02 07:20:07;;;;;;;14.67;13.37;;;1.10;99.90;;;1.46;99.53;96928.88;5209850;28;20198;-79
2022/04/02 07:22:43;;;;;;;15.70;14.20;;;1.10;99.90;;;1.58;100.00;96929.78;5204604;28;20271;-79
2022/04/02 07:25:19;;;;;;;15.77;14.27;;;1.10;99.90;;;1.60;100.00;96934.06;5211484;28;20201;-80
2022/04/02 07:27:52;;;;;;;14.43;13.30;;;1.10;99.90;;;1.49;98.66;96936.66;5212258;28;20597;-80
2022/04/02 07:30:26;;;;;;;13.80;12.70;;;1.10;99.90;;;1.47;98.43;96940.69;5210737;28;20200;-81
2022/04/02 07:32:59;;;;;;;15.63;14.33;;;1.00;99.90;;;1.39;97.93;96943.38;5211041;28;20214;-79
2022/04/02 07:35:36;;;;;;;16.23;14.73;;;0.90;99.90;;;1.38;98.28;96950.06;5210293;28;20246;-80
2022/04/02 07:38:18;;;;;;;15.00;13.80;;;0.90;99.90;;;1.44;96.93;96955.56;5211485;28;20256;-79
2022/04/02 07:40:56;;;;;;;15.03;13.73;;;0.90;99.90;;;1.49;98.85;96964.34;5207132;28;20196;-79
2022/04/02 07:43:41;;;;;;;15.70;14.40;;;1.00;99.90;;;1.59;100.00;96958.38;5210448;28;20706;-79
2022/04/02 07:46:18;;;;;;;17.43;15.87;;;1.10;99.90;;;1.62;100.00;96961.09;5208277;28;20665;-79
2022/04/02 07:48:52;;;;;;;17.73;16.10;;;1.20;99.90;;;1.74;100.00;96969.59;5213648;28;20221;-79
2022/04/02 07:51:29;;;;;;;16.03;14.53;;;1.30;99.90;;;1.75;97.94;96976.41;5210734;28;20205;-80
2022/04/02 07:54:05;;;;;;;15.60;14.20;;;1.30;99.90;;;1.60;95.32;96972.69;5217027;28;20276;-79
2022/04/02 07:56:40;;;;;;;15.53;14.23;;;1.10;99.90;;;1.79;97.82;96969.94;5208756;28;20229;-80
2022/04/02 07:59:27;;;;;;;16.20;14.63;;;1.30;99.90;;;1.90;98.02;96978.34;5210895;28;20235;-79
2022/04/02 08:02:01;;;;;;;16.33;14.87;;;1.40;99.90;;;1.78;96.41;96978.28;5211180;28;20625;-79
2022/04/02 08:04:35;;;;;;;16.03;14.57;;;1.30;99.90;;;2.00;98.20;96990.84;5206413;28;20216;-81
2022/04/02 08:07:08;;;;;;;16.23;14.77;;;1.40;99.90;;;1.91;96.96;96991.03;5210290;28;20269;-81
2022/04/02 08:09:43;;;;;;;16.20;14.77;;;1.30;99.90;;;1.81;97.85;96998.66;5212097;28;20643;-78
2022/04/02 08:12:17;;;;;;;15.50;14.10;;;1.40;99.90;;;1.74;95.60;96997.28;5210294;28;20224;-77
2022/04/02 08:14:51;;;;;;;15.70;14.20;;;1.30;99.90;;;1.77;94.77;96997.56;5212132;28;20209;-78
2022/04/02 08:17:25;;;;;;;15.83;14.40;;;1.30;99.90;;;1.69;95.92;96998.59;5211392;28;20447;-79
2022/04/02 08:20:00;;;;;;;16.60;15.10;;;1.20;99.90;;;1.78;96.58;97004.34;5210442;28;20204;-78
2022/04/02 08:22:34;;;;;;;16.83;15.33;;;1.30;99.90;;;1.82;95.93;97013.00;5211735;28;20303;-79
2022/04/02 08:25:10;;;;;;;15.83;14.33;;;1.40;99.90;;;1.70;94.51;97017.97;5203474;28;20669;-79
2022/04/02 08:27:58;;;;;;;16.17;14.77;;;1.30;99.90;;;1.70;95.46;97019.63;5205582;28;20201;-78
2022/04/02 08:30:35;;;;;;;16.90;15.40;;;1.30;99.90;;;1.58;96.08;97024.59;5205675;28;20289;-79
2022/04/02 08:33:41;;;;;;;16.30;15.00;;;1.20;99.90;;;1.58;94.31;97028.00;5205629;28;20715;-78
2022/04/02 08:36:24;;;;;;;17.27;15.67;;;1.20;99.90;;;1.64;95.62;97039.31;5210718;28;20263;-80
2022/04/02 08:39:05;;;;;;;16.87;15.30;;;1.20;99.90;;;1.71;97.10;97036.50;5214361;28;20220;-78
2022/04/02 08:42:22;;;;;;;17.17;15.57;;;1.30;99.90;;;1.67;95.50;97040.41;5218018;28;20210;-79
2022/04/02 08:45:09;;;;;;;17.60;15.53;;;1.30;99.90;;;1.71;96.32;97047.44;5214288;28;20207;-81
2022/04/02 08:48:26;;;;;;;17.63;15.93;;;1.30;99.90;;;2.05;99.39;97050.03;5227338;28;20205;-79
2022/04/02 08:51:15;;;;;;;16.77;15.13;;;1.50;99.90;;;1.71;93.47;97057.50;5217216;28;20216;-80
2022/04/02 08:53:59;;;;;;;17.07;15.33;;;1.40;99.90;;;1.84;96.33;97058.47;5209978;28;20247;-78
2022/04/02 08:56:38;;;;;;;16.83;15.23;;;1.30;99.90;;;1.51;92.32;97067.69;5216503;28;20225;-80
2022/04/02 08:59:23;;;;;;;16.70;15.30;;;1.20;99.90;;;1.51;93.72;97072.72;5211996;28;20213;-80
2022/04/02 09:02:13;;;;;;;16.23;14.83;;;1.10;99.90;;;1.59;93.69;97081.75;5215038;28;20674;-80
2022/04/02 09:05:11;;;;;;;16.57;15.07;;;1.30;99.90;;;1.63;94.35;97088.81;5207567;28;20209;-80
2022/04/02 09:08:39;;;;;;;16.90;15.40;;;1.20;99.90;;;1.43;92.42;97083.81;5211469;28;20482;-80
2022/04/02 09:11:23;;;;;;;15.63;14.13;;;1.20;99.90;;;1.42;94.34;97087.09;5215152;28;20340;-82
2022/04/02 09:14:56;;;;;;;15.97;14.47;;;1.10;99.90;;;1.47;94.86;97098.41;5214024;28;20278;-81
2022/04/02 09:17:37;;;;;;;16.33;14.73;;;1.10;99.90;;;1.48;93.91;97102.69;5112143;29;20212;-79
2022/04/02 09:20:48;;;;;;;17.23;15.63;;;1.30;99.90;;;1.74;96.36;97107.25;5109074;29;20228;-82
2022/04/02 09:23:42;;;;;;;15.90;14.30;;;1.30;99.90;;;1.52;93.60;97107.22;5214284;28;20215;-80
2022/04/02 09:26:54;;;;;;;17.10;15.40;;;1.30;99.90;;;1.65;94.69;97109.06;5219414;28;20271;-80
2022/04/02 09:29:29;;;;;;;16.07;14.67;;;1.30;99.90;;;1.61;94.57;97118.00;5219401;28;20207;-79
2022/04/02 09:32:51;;;;;;;15.57;14.27;;;1.20;99.90;;;1.60;94.35;97117.88;5215354;28;20250;-79
2022/04/02 09:35:58;;;;;;;15.93;14.33;;;1.30;99.90;;;1.60;95.47;97115.38;5213864;28;20191;-79
2022/04/02 09:39:03;;;;;;;14.77;13.30;;;1.30;99.90;;;1.51;95.40;97118.91;5213293;28;20200;-81
2022/04/02 09:42:09;;;;;;;15.30;14.00;;;1.20;99.90;;;1.60;96.71;97125.44;5220129;28;20198;-81
2022/04/02 09:45:04;;;;;;;16.93;15.43;;;1.30;99.90;;;1.55;95.35;97131.00;5212758;28;20238;-80
2022/04/02 09:48:22;;;;;;;17.20;15.60;;;1.40;99.90;;;1.56;94.63;97122.69;5216016;28;20209;-80
2022/04/02 09:50:56;;;;;;;17.17;15.43;;;1.30;99.90;;;1.58;95.14;97132.88;5210866;28;20221;-80
2022/04/02 09:53:33;;;;;;;17.33;15.73;;;1.20;99.90;;;1.56;95.91;97131.88;5211552;28;20258;-80
2022/04/02 09:56:26;;;;;;;17.73;15.87;;;1.20;99.90;;;1.62;95.62;97132.34;5218260;28;20260;-79
2022/04/02 09:59:09;;;;;;;16.60;14.90;;;1.30;99.90;;;1.75;94.91;97135.09;5213958;28;20203;-80
2022/04/02 10:01:55;;;;;;;16.77;15.30;;;1.40;99.90;;;1.77;92.85;97132.69;5218899;28;20205;-81
2022/04/02 10:04:41;;;;;;;14.97;13.60;;;1.50;99.90;;;1.56;90.32;97139.44;5219400;28;20258;-80
2022/04/02 10:07:45;;;;;;;17.23;15.53;;;1.40;99.90;;;1.72;93.84;97139.91;5224887;28;22377;-80
2022/04/02 10:10:21;;;;;;;15.83;14.43;;;1.40;99.90;;;1.84;94.17;97139.09;5212980;28;20255;-81
2022/04/02 10:12:55;;;;;;;16.90;15.40;;;1.50;99.90;;;1.96;97.35;97151.00;5217552;28;20225;-80
2022/04/02 10:15:32;;;;;;;16.30;14.80;;;1.60;99.90;;;1.86;92.79;97140.06;5231309;28;20194;-80
2022/04/02 10:18:05;;;;;;;16.03;14.63;;;1.50;99.90;;;1.99;93.23;97150.38;5211309;28;20199;-80
2022/04/02 10:20:40;;;;;;;17.33;15.73;;;1.60;99.90;;;2.11;93.00;97161.38;5231456;28;20206;-80
2022/04/02 10:23:21;;;;;;;17.17;15.53;;;1.70;99.90;;;2.05;92.46;97163.44;5227480;28;20251;-80
2022/04/02 10:26:14;;;;;;;17.90;16.30;;;1.70;99.90;;;2.28;94.91;97159.31;5219030;28;20215;-81
2022/04/02 10:28:53;;;;;;;17.07;15.47;;;1.80;99.90;;;2.37;92.17;97160.88;5209498;28;20197;-79
2022/04/02 10:31:40;;;;;;;16.37;14.83;;;1.90;99.90;;;2.22;89.05;97184.91;5211623;28;20198;-80
2022/04/02 10:34:29;;;;;;;15.70;14.30;;;1.90;99.90;;;2.11;88.60;97174.00;5217471;28;20755;-78
2022/04/02 10:37:15;;;;;;;16.27;14.77;;;1.70;99.90;;;2.24;92.90;97174.19;5207452;28;20372;-80
2022/04/02 10:39:58;;;;;;;15.77;14.43;;;1.80;99.90;;;2.10;89.84;97174.75;5213788;28;20232;-81
2022/04/02 10:42:39;;;;;;;16.33;14.90;;;1.80;99.90;;;2.20;88.82;97177.25;5213257;28;20291;-80
2022/04/02 10:45:14;;;;;;;16.17;14.77;;;1.80;99.90;;;2.15;89.45;97176.00;5219932;28;20208;-79
2022/04/02 10:47:52;;;;;;;15.27;13.87;;;1.90;99.90;;;1.97;86.18;97174.56;5214677;28;20206;-82
2022/04/02 10:50:28;;;;;;;15.80;14.33;;;1.70;99.90;;;1.96;89.01;97182.88;5216723;28;20438;-80
2022/04/02 10:53:05;;;;;;;15.13;13.83;;;1.70;99.90;;;2.00;89.07;97172.28;5209414;28;20848;-80
2022/04/02 10:55:45;;;;;;;16.23;14.93;;;1.70;99.90;;;2.14;91.38;97186.84;5213203;28;20680;-80
2022/04/02 10:58:22;;;;;;;16.87;15.47;;;1.80;99.90;;;2.25;90.91;97183.50;5211036;28;20623;-80
2022/04/02 11:00:57;;;;;;;15.10;13.70;;;1.90;99.90;;;2.00;89.65;97197.47;5216609;28;20195;-80
2022/04/02 11:03:40;;;;;;;17.03;15.63;;;1.70;99.90;;;2.12;91.16;97190.91;5215580;28;20279;-81
2022/04/02 11:06:47;;;;;;;16.53;15.00;;;1.70;99.90;;;2.19;92.79;97195.63;5210031;28;20575;-81
2022/04/02 11:09:33;;;;;;;17.73;16.10;;;1.80;99.90;;;2.21;90.15;97193.25;5212989;28;20224;-80
2022/04/02 11:12:09;;;;;;;18.07;16.47;;;1.90;99.90;;;2.37;91.14;97190.25;5210499;28;20194;-80
2022/04/02 11:14:45;;;;;;;16.30;14.90;;;2.00;99.90;;;2.46;89.88;97191.88;5207538;28;20191;-80
2022/04/02 11:17:30;;;;;;;17.93;16.23;;;2.10;99.90;;;2.62;91.74;97193.03;5225773;28;20208;-81
2022/04/02 11:20:10;;;;;;;17.90;16.37;;;2.30;99.90;;;2.63;90.11;97195.69;5224399;28;20220;-79
2022/04/02 11:23:14;;;;;;;18.27;16.73;;;2.30;99.90;;;2.49;90.07;97201.31;5212346;28;20224;-80
2022/04/02 11:25:50;;;;;;;17.87;16.27;;;2.10;99.90;;;2.41;90.51;97208.28;5208038;28;20196;-81